Time;durP1;ratioP1;P1;durP2;ratioP2;P2;SDS_P1;SDS_P2;PMS_P1;PMS_P2;Temp;Humidity;BMP_temperature;BMP_pressure;BME280_temperature;BME280_humidity;BME280_pressure;Samples;Min_cycle;Max_cycle;Signal;HPM_P1;HPM_P2
2023/05/24 00:01:55;;;;;;;31.85;19.42;;;6.00;99.90;;;;;;4962309;28;20050;-75
2023/05/24 00:04:23;;;;;;;31.95;18.45;;;6.00;99.90;;;;;;4967174;28;20042;-74
2023/05/24 00:06:53;;;;;;;31.27;19.05;;;5.90;99.90;;;;;;4963848;28;20148;-74
2023/05/24 00:09:20;;;;;;;24.67;17.83;;;5.90;99.90;;;;;;4968147;28;20042;-74
2023/05/24 00:11:47;;;;;;;25.70;17.85;;;5.90;99.90;;;;;;4966311;28;20030;-74
2023/05/24 00:14:15;;;;;;;29.15;18.00;;;5.90;99.90;;;;;;4967703;28;20069;-75
2023/05/24 00:16:41;;;;;;;27.13;17.77;;;5.80;99.90;;;;;;4963183;28;20038;-74
2023/05/24 00:19:09;;;;;;;35.08;18.42;;;5.80;99.90;;;;;;4966492;28;20129;-74
2023/05/24 00:21:37;;;;;;;38.58;18.20;;;5.80;99.90;;;;;;4957222;28;20034;-74
2023/05/24 00:24:04;;;;;;;26.48;17.70;;;5.70;99.90;;;;;;4969045;28;20042;-75
2023/05/24 00:26:30;;;;;;;26.70;17.48;;;5.70;99.90;;;;;;4963124;28;20659;-74
2023/05/24 00:28:57;;;;;;;32.95;19.42;;;5.60;99.90;;;;;;4978722;28;20568;-75
2023/05/24 00:31:24;;;;;;;24.52;17.85;;;5.60;99.90;;;;;;4934640;28;20039;-74
2023/05/24 00:33:51;;;;;;;30.27;18.20;;;5.50;99.90;;;;;;4960754;28;20057;-75
2023/05/24 00:36:17;;;;;;;27.08;17.92;;;5.50;99.90;;;;;;4963282;28;20137;-74
2023/05/24 00:38:46;;;;;;;32.97;18.10;;;5.40;99.90;;;;;;4963642;28;20173;-75
2023/05/24 00:41:15;;;;;;;31.00;16.95;;;5.50;99.90;;;;;;4964248;28;20050;-74
2023/05/24 00:43:44;;;;;;;34.45;18.08;;;5.50;99.90;;;;;;4964409;28;20073;-75
2023/05/24 00:46:19;;;;;;;27.88;17.70;;;5.50;99.90;;;;;;4969746;28;20367;-75
2023/05/24 00:48:48;;;;;;;25.75;16.42;;;5.40;99.90;;;;;;4966306;28;20070;-74
2023/05/24 00:51:16;;;;;;;33.95;17.05;;;5.40;99.90;;;;;;4963083;28;20527;-75
2023/05/24 00:53:45;;;;;;;33.03;17.55;;;5.40;99.90;;;;;;4978207;28;20512;-74
2023/05/24 00:56:14;;;;;;;29.98;17.27;;;5.50;99.90;;;;;;4968870;28;20049;-75
2023/05/24 00:58:41;;;;;;;31.42;16.65;;;5.50;99.90;;;;;;4960465;28;20057;-74
2023/05/24 01:01:09;;;;;;;30.80;16.88;;;5.40;99.90;;;;;;4961966;28;20548;-73
2023/05/24 01:03:36;;;;;;;28.90;17.60;;;5.40;99.90;;;;;;4961213;28;20067;-73
2023/05/24 01:06:06;;;;;;;31.80;16.23;;;5.30;99.90;;;;;;4958245;28;20042;-74
2023/05/24 01:08:38;;;;;;;39.08;17.20;;;5.30;99.90;;;;;;4969596;28;20092;-73
2023/05/24 01:11:28;;;;;;;24.27;17.35;;;5.20;99.90;;;;;;4955976;28;20052;-74
2023/05/24 01:14:20;;;;;;;26.95;16.65;;;5.20;99.90;;;;;;4957634;28;20073;-73
2023/05/24 01:17:19;;;;;;;37.53;18.48;;;5.20;99.90;;;;;;4958624;28;20109;-73
2023/05/24 01:19:58;;;;;;;39.60;17.52;;;5.20;99.90;;;;;;4959403;28;20470;-74
2023/05/24 01:23:07;;;;;;;26.85;16.95;;;5.20;99.90;;;;;;4973333;28;20053;-73
2023/05/24 01:25:57;;;;;;;35.83;18.65;;;5.20;99.90;;;;;;4934326;28;20046;-74
2023/05/24 01:28:25;;;;;;;27.23;17.42;;;5.30;99.90;;;;;;4959151;28;21131;-74
2023/05/24 01:30:54;;;;;;;35.45;17.63;;;5.20;99.90;;;;;;4974648;28;20114;-74
2023/05/24 01:33:22;;;;;;;33.70;17.35;;;5.30;99.90;;;;;;4958321;28;20512;-74
2023/05/24 01:35:49;;;;;;;28.08;16.77;;;5.30;99.90;;;;;;4974739;28;20406;-75
2023/05/24 01:38:16;;;;;;;29.75;17.33;;;5.20;99.90;;;;;;4962191;28;20105;-73
2023/05/24 01:40:45;;;;;;;23.73;17.15;;;5.10;99.90;;;;;;4971789;28;20043;-74
2023/05/24 01:43:30;;;;;;;25.92;17.45;;;5.10;99.90;;;;;;4964143;28;20054;-73
2023/05/24 01:46:21;;;;;;;25.48;18.02;;;5.00;99.90;;;;;;4952235;28;20066;-73
2023/05/24 01:49:22;;;;;;;31.10;19.05;;;4.80;99.90;;;;;;4953490;28;20054;-74
2023/05/24 01:51:54;;;;;;;35.70;19.38;;;4.80;99.90;;;;;;4936061;28;20125;-73
2023/05/24 01:54:23;;;;;;;39.03;21.13;;;4.90;99.90;;;;;;4977206;28;20140;-73
2023/05/24 01:56:53;;;;;;;30.75;20.80;;;4.90;99.90;;;;;;4962059;28;20049;-73
2023/05/24 01:59:21;;;;;;;33.38;20.13;;;5.00;99.90;;;;;;4978568;28;20046;-73
2023/05/24 02:01:48;;;;;;;37.92;21.17;;;4.90;99.90;;;;;;4975761;28;20656;-73
2023/05/24 02:04:16;;;;;;;31.63;21.13;;;4.90;99.90;;;;;;4966549;28;20528;-73
2023/05/24 02:06:43;;;;;;;31.67;21.45;;;4.90;99.90;;;;;;4960837;28;20124;-74
2023/05/24 02:09:10;;;;;;;31.20;20.23;;;4.70;99.90;;;;;;4967746;28;20054;-73
2023/05/24 02:11:37;;;;;;;26.90;20.55;;;4.60;99.90;;;;;;4962569;28;20129;-74
2023/05/24 02:14:03;;;;;;;32.90;22.23;;;4.60;99.90;;;;;;4965204;28;20062;-74
2023/05/24 02:16:30;;;;;;;31.48;22.10;;;4.60;99.90;;;;;;4962821;28;20058;-73
2023/05/24 02:18:57;;;;;;;37.45;20.45;;;4.50;99.90;;;;;;4964235;28;20047;-73
2023/05/24 02:21:24;;;;;;;35.00;20.48;;;4.60;99.90;;;;;;4962180;28;20046;-74
2023/05/24 02:23:51;;;;;;;25.25;20.63;;;4.60;99.90;;;;;;4977091;28;20223;-74
2023/05/24 02:26:18;;;;;;;27.05;19.73;;;4.50;99.90;;;;;;4970858;28;20039;-73
2023/05/24 02:28:45;;;;;;;29.95;21.88;;;4.40;99.90;;;;;;4952334;28;20734;-74
2023/05/24 02:31:11;;;;;;;33.55;20.73;;;4.30;99.90;;;;;;4956618;28;20043;-74
2023/05/24 02:33:39;;;;;;;30.75;22.65;;;4.30;99.90;;;;;;4962615;28;20050;-73
2023/05/24 02:36:06;;;;;;;33.53;22.08;;;4.40;99.90;;;;;;4983633;28;20088;-74
2023/05/24 02:38:32;;;;;;;32.63;22.00;;;4.30;99.90;;;;;;4965828;28;20606;-73
2023/05/24 02:40:59;;;;;;;28.30;22.02;;;4.20;99.90;;;;;;4980043;28;20487;-73
2023/05/24 02:43:26;;;;;;;39.08;23.80;;;4.30;99.90;;;;;;4965362;28;20053;-73
2023/05/24 02:45:52;;;;;;;36.58;22.50;;;4.50;99.90;;;;;;4951690;28;20225;-74
2023/05/24 02:48:19;;;;;;;38.42;23.92;;;4.60;99.90;;;;;;4974329;28;20038;-73
2023/05/24 02:50:46;;;;;;;29.88;21.83;;;4.50;99.90;;;;;;4964995;28;20063;-74
2023/05/24 02:53:13;;;;;;;32.50;22.95;;;4.40;99.90;;;;;;4956995;28;20116;-73
2023/05/24 02:55:42;;;;;;;42.17;23.67;;;4.40;99.90;;;;;;4963458;28;20057;-73
2023/05/24 02:58:11;;;;;;;36.58;24.73;;;4.30;99.90;;;;;;4981888;28;20305;-73
2023/05/24 03:00:37;;;;;;;34.40;23.55;;;4.40;99.90;;;;;;4960833;28;20062;-73
2023/05/24 03:03:05;;;;;;;32.80;22.63;;;4.40;99.90;;;;;;4964291;28;20055;-73
2023/05/24 03:05:32;;;;;;;35.45;22.88;;;4.40;99.90;;;;;;4968513;28;20524;-73
2023/05/24 03:07:59;;;;;;;26.48;22.88;;;4.50;99.90;;;;;;4952159;28;20072;-75
2023/05/24 03:10:25;;;;;;;28.42;22.27;;;4.60;99.90;;;;;;4968083;28;20049;-73
2023/05/24 03:12:52;;;;;;;44.47;24.13;;;4.60;99.90;;;;;;4964113;28;20042;-75
2023/05/24 03:15:19;;;;;;;37.45;23.30;;;4.70;99.90;;;;;;4972145;28;20053;-75
2023/05/24 03:17:46;;;;;;;32.92;23.08;;;4.70;99.90;;;;;;4963025;28;20054;-75
2023/05/24 03:20:14;;;;;;;33.85;22.48;;;4.80;99.90;;;;;;4981405;28;20093;-75
2023/05/24 03:22:41;;;;;;;34.80;23.17;;;4.70;99.90;;;;;;4966244;28;20048;-75
2023/05/24 03:25:08;;;;;;;38.72;22.67;;;4.80;99.90;;;;;;4951459;28;20097;-75
2023/05/24 03:27:35;;;;;;;36.72;24.10;;;4.80;99.90;;;;;;4949935;28;20057;-75
2023/05/24 03:30:02;;;;;;;33.50;23.42;;;4.80;99.90;;;;;;4968513;28;20035;-75
2023/05/24 03:32:34;;;;;;;28.52;22.92;;;4.80;99.90;;;;;;4943902;28;20312;-75
2023/05/24 03:35:01;;;;;;;32.03;22.95;;;5.00;99.90;;;;;;4960876;28;20035;-75
2023/05/24 03:37:28;;;;;;;36.28;22.27;;;5.00;99.90;;;;;;4960259;28;20508;-75
2023/05/24 03:39:55;;;;;;;40.90;23.02;;;5.10;99.90;;;;;;4960869;28;20050;-75
2023/05/24 03:42:33;;;;;;;29.55;21.10;;;5.20;99.90;;;;;;4976044;28;20043;-75
2023/05/24 03:45:00;;;;;;;35.88;21.35;;;5.20;99.90;;;;;;4977635;28;20050;-75
2023/05/24 03:47:27;;;;;;;36.35;20.35;;;5.30;99.90;;;;;;4976220;28;20520;-74
2023/05/24 03:49:53;;;;;;;33.58;23.15;;;5.40;99.90;;;;;;4964372;28;20276;-75
2023/05/24 03:52:20;;;;;;;28.20;22.50;;;5.50;99.90;;;;;;4978800;28;20046;-75
2023/05/24 03:54:48;;;;;;;25.35;21.83;;;5.50;99.90;;;;;;4964754;28;20062;-75
2023/05/24 03:57:14;;;;;;;33.85;21.75;;;5.50;99.90;;;;;;4960670;28;20074;-75
2023/05/24 03:59:41;;;;;;;31.02;20.60;;;5.70;99.90;;;;;;4962106;28;20057;-75
2023/05/24 04:02:08;;;;;;;28.33;20.52;;;5.60;99.90;;;;;;4944072;28;20074;-75
2023/05/24 04:04:38;;;;;;;36.00;21.15;;;5.70;99.90;;;;;;4963692;28;20047;-75
2023/05/24 04:07:05;;;;;;;39.63;21.83;;;5.90;99.90;;;;;;4962018;28;20046;-75
2023/05/24 04:09:31;;;;;;;38.33;19.75;;;6.00;99.90;;;;;;4980622;28;20606;-75
2023/05/24 04:11:58;;;;;;;38.30;19.52;;;6.00;99.90;;;;;;4976104;28;20043;-75
2023/05/24 04:14:25;;;;;;;44.38;19.30;;;6.10;99.90;;;;;;4968687;28;20113;-75
2023/05/24 04:16:52;;;;;;;37.50;19.77;;;6.10;99.90;;;;;;4938551;28;20045;-75
2023/05/24 04:19:19;;;;;;;42.90;19.60;;;6.10;99.90;;;;;;4969570;28;20085;-75
2023/05/24 04:21:46;;;;;;;36.50;20.42;;;6.10;99.90;;;;;;4964142;28;20093;-75
2023/05/24 04:24:12;;;;;;;36.85;18.85;;;6.20;99.90;;;;;;4944591;28;20042;-73
2023/05/24 04:26:42;;;;;;;39.95;18.95;;;6.30;99.90;;;;;;4979475;28;20147;-73
2023/05/24 04:29:09;;;;;;;31.90;19.27;;;6.40;99.90;;;;;;4964707;28;21371;-72
2023/05/24 04:31:35;;;;;;;35.78;19.52;;;6.40;99.90;;;;;;4956009;28;20061;-73
2023/05/24 04:34:06;;;;;;;36.28;18.10;;;6.30;99.90;;;;;;4963605;28;20116;-73
2023/05/24 04:36:34;;;;;;;33.33;18.73;;;6.30;99.90;;;;;;4956400;28;20302;-73
2023/05/24 04:39:03;;;;;;;35.70;18.70;;;6.30;99.90;;;;;;4947270;28;20054;-73
2023/05/24 04:41:31;;;;;;;48.38;20.52;;;6.30;99.90;;;;;;4964942;28;20479;-73
2023/05/24 04:44:00;;;;;;;42.30;20.35;;;6.40;99.90;;;;;;4962338;28;20034;-73
2023/05/24 04:46:27;;;;;;;46.13;21.30;;;6.40;99.90;;;;;;4982423;28;20053;-73
2023/05/24 04:48:54;;;;;;;50.33;22.17;;;6.40;99.90;;;;;;4957570;28;20241;-73
2023/05/24 04:51:22;;;;;;;42.10;21.05;;;6.40;99.90;;;;;;4971702;28;20050;-76
2023/05/24 04:53:49;;;;;;;43.42;22.42;;;6.30;99.90;;;;;;4974695;28;21597;-73
2023/05/24 04:56:16;;;;;;;37.38;20.08;;;6.40;99.90;;;;;;4960953;28;20714;-73
2023/05/24 04:58:43;;;;;;;52.65;21.15;;;6.50;99.90;;;;;;4966908;28;20509;-73
2023/05/24 05:01:09;;;;;;;35.28;20.52;;;6.60;99.90;;;;;;4944522;28;20039;-72
2023/05/24 05:03:36;;;;;;;37.55;20.63;;;6.60;99.90;;;;;;4958771;28;20093;-76
2023/05/24 05:06:03;;;;;;;47.75;20.35;;;6.50;99.90;;;;;;4964564;28;20103;-75
2023/05/24 05:08:30;;;;;;;33.75;20.08;;;6.60;99.90;;;;;;4955993;28;20059;-74
2023/05/24 05:10:57;;;;;;;37.53;20.10;;;6.70;99.90;;;;;;4960160;28;20179;-73
2023/05/24 05:13:24;;;;;;;35.60;19.88;;;6.80;99.90;;;;;;4967263;28;20117;-73
2023/05/24 05:15:51;;;;;;;45.13;19.38;;;6.90;99.90;;;;;;4970791;28;20042;-73
2023/05/24 05:18:18;;;;;;;38.03;20.58;;;6.90;99.90;;;;;;4960849;28;20046;-74
2023/05/24 05:20:45;;;;;;;39.85;21.33;;;6.90;99.90;;;;;;4961673;28;20538;-73
2023/05/24 05:23:12;;;;;;;36.95;20.40;;;6.90;99.90;;;;;;4960487;28;20580;-74
2023/05/24 05:25:39;;;;;;;36.92;21.35;;;7.00;99.90;;;;;;4962568;28;20492;-74
2023/05/24 05:28:05;;;;;;;40.20;21.17;;;7.10;99.90;;;;;;4979226;28;20505;-74
2023/05/24 05:30:32;;;;;;;37.30;20.80;;;7.10;99.90;;;;;;4960123;28;20050;-73
2023/05/24 05:32:59;;;;;;;40.72;22.77;;;7.10;99.90;;;;;;4962766;28;20185;-73
2023/05/24 05:35:26;;;;;;;43.08;21.83;;;7.20;99.90;;;;;;4967046;28;20427;-73
2023/05/24 05:37:52;;;;;;;49.45;24.23;;;7.30;99.90;;;;;;4956213;28;20105;-73
2023/05/24 05:40:19;;;;;;;55.63;25.98;;;7.30;99.90;;;;;;4980846;28;20159;-73
2023/05/24 05:42:46;;;;;;;40.80;24.08;;;7.30;99.90;;;;;;4961884;28;20051;-73
2023/05/24 05:45:13;;;;;;;43.70;24.73;;;7.30;99.90;;;;;;4958316;28;21222;-73
2023/05/24 05:47:40;;;;;;;42.80;24.17;;;7.30;99.90;;;;;;4960338;28;20073;-73
2023/05/24 05:50:07;;;;;;;55.70;24.67;;;7.40;99.90;;;;;;4960566;28;20134;-73
2023/05/24 05:52:34;;;;;;;47.50;25.85;;;7.40;99.90;;;;;;4961906;28;20058;-73
2023/05/24 05:55:01;;;;;;;48.92;26.30;;;7.50;99.90;;;;;;4961746;28;20078;-73
2023/05/24 05:57:28;;;;;;;47.22;27.27;;;7.60;99.90;;;;;;4954700;28;20046;-73
2023/05/24 05:59:54;;;;;;;57.03;28.67;;;7.70;99.90;;;;;;4958363;28;20482;-73
2023/05/24 06:02:21;;;;;;;56.10;30.23;;;7.70;99.90;;;;;;4965397;28;20101;-73
2023/05/24 06:04:48;;;;;;;58.72;29.83;;;7.60;99.90;;;;;;4951179;28;20047;-73
2023/05/24 06:07:15;;;;;;;50.33;28.40;;;7.60;99.90;;;;;;4958144;28;20046;-73
2023/05/24 06:09:42;;;;;;;53.00;29.23;;;7.50;99.90;;;;;;4978749;28;20129;-73
2023/05/24 06:12:09;;;;;;;63.67;29.55;;;7.60;99.90;;;;;;4958896;28;20132;-73
2023/05/24 06:14:37;;;;;;;57.45;29.88;;;7.60;99.90;;;;;;4961039;28;20133;-74
2023/05/24 06:17:05;;;;;;;65.10;31.73;;;7.70;99.90;;;;;;4962203;28;20043;-74
2023/05/24 06:19:31;;;;;;;53.55;30.55;;;7.70;99.90;;;;;;4973204;28;20130;-74
2023/05/24 06:21:58;;;;;;;56.22;30.83;;;7.90;99.90;;;;;;4960327;28;20085;-73
2023/05/24 06:24:27;;;;;;;51.38;31.05;;;8.00;99.90;;;;;;4957642;28;20045;-73
2023/05/24 06:26:54;;;;;;;54.63;32.88;;;8.00;99.90;;;;;;4958126;28;20374;-74
2023/05/24 06:29:21;;;;;;;61.33;31.75;;;8.20;99.90;;;;;;4963801;28;20504;-73
2023/05/24 06:31:48;;;;;;;50.15;31.90;;;8.40;99.90;;;;;;4955593;28;20046;-74
2023/05/24 06:34:19;;;;;;;48.97;30.13;;;8.50;99.90;;;;;;4950279;28;20070;-74
2023/05/24 06:36:47;;;;;;;56.65;33.22;;;8.60;99.90;;;;;;4962682;28;20290;-73
2023/05/24 06:39:15;;;;;;;58.55;32.50;;;8.60;99.90;;;;;;4970816;28;20043;-73
2023/05/24 06:41:43;;;;;;;46.03;32.95;;;8.60;99.90;;;;;;4960699;28;20146;-73
2023/05/24 06:44:09;;;;;;;43.95;32.03;;;8.60;99.90;;;;;;4965465;28;20536;-73
2023/05/24 06:46:36;;;;;;;59.20;29.90;;;8.70;99.90;;;;;;4959683;28;20249;-73
2023/05/24 06:49:03;;;;;;;52.75;32.15;;;8.70;99.90;;;;;;4969516;28;20047;-73
2023/05/24 06:51:32;;;;;;;47.83;29.80;;;8.60;99.90;;;;;;4976639;28;20042;-74
2023/05/24 06:53:59;;;;;;;53.47;29.88;;;8.80;99.90;;;;;;4976139;28;20047;-73
2023/05/24 06:56:26;;;;;;;52.97;27.98;;;8.90;99.90;;;;;;4965946;28;20137;-74
2023/05/24 06:58:52;;;;;;;53.60;31.50;;;9.00;99.90;;;;;;4961586;28;20043;-73
2023/05/24 07:01:21;;;;;;;44.22;28.73;;;9.00;99.90;;;;;;4962442;28;20097;-73
2023/05/24 07:03:48;;;;;;;45.70;29.75;;;9.10;99.90;;;;;;4965335;28;20042;-73
2023/05/24 07:06:15;;;;;;;44.58;29.13;;;9.20;99.90;;;;;;4959309;28;20644;-73
2023/05/24 07:08:41;;;;;;;52.78;30.52;;;9.20;99.90;;;;;;4962138;28;20053;-72
2023/05/24 07:11:08;;;;;;;45.58;28.65;;;9.40;99.90;;;;;;4962819;28;20057;-72
2023/05/24 07:13:35;;;;;;;46.50;31.73;;;9.90;99.90;;;;;;4959604;28;20042;-72
2023/05/24 07:16:02;;;;;;;49.67;31.90;;;9.90;99.90;;;;;;4965275;28;20576;-73
2023/05/24 07:18:29;;;;;;;51.70;34.42;;;10.00;99.90;;;;;;4983574;28;20351;-72
2023/05/24 07:20:56;;;;;;;48.22;34.90;;;10.00;99.90;;;;;;4959891;28;20480;-73
2023/05/24 07:23:23;;;;;;;41.88;32.30;;;10.10;99.90;;;;;;4967905;28;20576;-73
2023/05/24 07:25:50;;;;;;;40.33;33.00;;;10.40;99.90;;;;;;4960112;28;20043;-73
2023/05/24 07:28:18;;;;;;;51.35;33.95;;;10.60;99.90;;;;;;4963345;28;20043;-73
2023/05/24 07:30:45;;;;;;;47.25;34.15;;;10.80;99.90;;;;;;4964441;28;20047;-72
2023/05/24 07:33:12;;;;;;;42.97;32.80;;;10.90;99.90;;;;;;4962388;28;20043;-73
2023/05/24 07:35:40;;;;;;;41.97;32.58;;;11.10;99.90;;;;;;4962685;28;20043;-73
2023/05/24 07:38:07;;;;;;;41.92;32.03;;;11.10;99.90;;;;;;4965255;28;20066;-73
2023/05/24 07:40:34;;;;;;;44.40;34.38;;;11.10;99.90;;;;;;4959352;28;20069;-73
2023/05/24 07:43:00;;;;;;;39.38;32.92;;;10.90;99.90;;;;;;4965773;28;20085;-73
2023/05/24 07:45:30;;;;;;;41.05;32.47;;;11.20;99.90;;;;;;4978294;28;20061;-72
2023/05/24 07:47:57;;;;;;;43.60;31.55;;;11.10;99.90;;;;;;4958246;28;20055;-72
2023/05/24 07:50:25;;;;;;;45.92;32.40;;;11.10;99.90;;;;;;4963503;28;20491;-73
2023/05/24 07:52:51;;;;;;;41.35;33.55;;;10.80;99.90;;;;;;4964293;28;20102;-73
2023/05/24 07:55:18;;;;;;;41.97;32.67;;;10.70;99.90;;;;;;4961122;28;20042;-73
2023/05/24 07:57:45;;;;;;;49.08;32.63;;;10.90;99.90;;;;;;4959110;28;20094;-72
2023/05/24 08:00:15;;;;;;;34.17;30.70;;;11.30;99.90;;;;;;4966087;28;20077;-72
2023/05/24 08:02:45;;;;;;;36.17;32.30;;;11.60;99.90;;;;;;4960076;28;20054;-72
2023/05/24 08:05:12;;;;;;;40.35;32.22;;;11.60;99.90;;;;;;4979298;28;20078;-72
2023/05/24 08:07:40;;;;;;;42.22;32.15;;;11.50;99.90;;;;;;4955319;28;20058;-73
2023/05/24 08:10:12;;;;;;;39.85;31.35;;;11.40;99.90;;;;;;4949563;28;20105;-73
2023/05/24 08:12:40;;;;;;;38.63;34.47;;;11.20;99.90;;;;;;4958942;28;20058;-72
2023/05/24 08:15:08;;;;;;;38.92;32.03;;;11.20;99.90;;;;;;4933948;28;20042;-72
2023/05/24 08:17:35;;;;;;;34.75;31.08;;;11.60;99.90;;;;;;4949493;28;20058;-73
2023/05/24 08:20:07;;;;;;;32.67;29.13;;;12.00;99.90;;;;;;4953725;28;20054;-73
2023/05/24 08:22:34;;;;;;;41.95;32.25;;;12.10;99.90;;;;;;4961402;28;20536;-73
2023/05/24 08:25:02;;;;;;;39.05;30.90;;;12.30;99.90;;;;;;4942744;28;20062;-73
2023/05/24 08:27:29;;;;;;;35.88;31.15;;;12.20;99.90;;;;;;4964579;28;20226;-73
2023/05/24 08:29:56;;;;;;;41.15;32.47;;;12.10;99.90;;;;;;4957402;28;20141;-73
2023/05/24 08:32:23;;;;;;;35.00;30.35;;;12.00;99.90;;;;;;4948834;28;20158;-72
2023/05/24 08:34:49;;;;;;;35.75;31.60;;;12.40;99.90;;;;;;4958375;28;20069;-72
2023/05/24 08:37:21;;;;;;;35.53;31.85;;;12.70;99.90;;;;;;4961963;28;20138;-75
2023/05/24 08:39:48;;;;;;;35.92;32.30;;;13.00;99.90;;;;;;4959356;28;20043;-72
2023/05/24 08:42:15;;;;;;;42.53;33.00;;;13.10;99.90;;;;;;4975216;28;20505;-74
2023/05/24 08:44:54;;;;;;;43.63;31.85;;;12.80;99.90;;;;;;4956383;28;20576;-72
2023/05/24 08:47:21;;;;;;;34.30;30.80;;;12.70;99.90;;;;;;4973225;28;20100;-75
2023/05/24 08:49:50;;;;;;;39.63;31.67;;;12.70;99.90;;;;;;4961231;28;20551;-72
2023/05/24 08:52:19;;;;;;;37.33;32.47;;;12.80;99.90;;;;;;4962290;28;20089;-72
2023/05/24 08:54:48;;;;;;;42.17;32.72;;;12.50;99.90;;;;;;4956683;28;20152;-72
2023/05/24 08:57:16;;;;;;;37.97;34.00;;;12.30;99.90;;;;;;4974746;28;20054;-72
2023/05/24 08:59:43;;;;;;;36.58;32.05;;;12.20;99.90;;;;;;4955661;28;20078;-72
2023/05/24 09:02:12;;;;;;;34.28;30.95;;;12.40;99.90;;;;;;4957413;28;20113;-72
2023/05/24 09:04:43;;;;;;;37.88;31.42;;;12.60;99.90;;;;;;4960141;28;20102;-74
2023/05/24 09:07:12;;;;;;;34.97;31.33;;;12.60;99.90;;;;;;4953275;28;20070;-76
2023/05/24 09:09:44;;;;;;;39.15;32.85;;;12.40;99.90;;;;;;4968548;28;20529;-76
2023/05/24 09:12:14;;;;;;;37.05;32.85;;;12.30;99.90;;;;;;4951249;28;20120;-74
2023/05/24 09:14:54;;;;;;;43.05;33.03;;;11.90;99.90;;;;;;4972671;28;20042;-74
2023/05/24 09:17:22;;;;;;;38.30;32.90;;;11.70;99.90;;;;;;4944621;28;20042;-73
2023/05/24 09:19:51;;;;;;;49.47;33.13;;;11.70;99.90;;;;;;4954751;28;20318;-73
2023/05/24 09:22:22;;;;;;;35.40;30.75;;;11.50;99.90;;;;;;4955882;28;20041;-73
2023/05/24 09:24:49;;;;;;;44.05;33.92;;;11.50;99.90;;;;;;4957584;28;20110;-75
2023/05/24 09:27:17;;;;;;;47.08;33.85;;;11.60;99.90;;;;;;4958626;28;20575;-78
2023/05/24 09:29:47;;;;;;;37.15;31.67;;;11.50;99.90;;;;;;4958194;28;20077;-74
2023/05/24 09:32:20;;;;;;;38.03;31.35;;;11.30;99.90;;;;;;4977248;28;20556;-77
2023/05/24 09:34:47;;;;;;;38.28;31.70;;;11.10;99.90;;;;;;4960062;28;20051;-76
2023/05/24 09:37:16;;;;;;;38.42;32.00;;;11.10;99.90;;;;;;4946103;28;20034;-76
2023/05/24 09:39:46;;;;;;;42.17;31.95;;;11.00;99.90;;;;;;4962676;28;20353;-76
2023/05/24 09:42:20;;;;;;;39.30;32.97;;;10.90;99.90;;;;;;4966619;28;20339;-77
2023/05/24 09:45:06;;;;;;;41.92;30.60;;;10.90;99.90;;;;;;4934009;28;20142;-76
2023/05/24 09:47:34;;;;;;;38.90;28.65;;;11.00;99.90;;;;;;4962920;28;20046;-74
2023/05/24 09:50:02;;;;;;;49.97;30.20;;;10.90;99.90;;;;;;4953821;28;20318;-75
2023/05/24 09:52:29;;;;;;;41.15;29.00;;;10.90;99.90;;;;;;4953727;28;20074;-75
2023/05/24 09:54:56;;;;;;;47.25;28.60;;;10.90;99.90;;;;;;4958793;28;20173;-75
2023/05/24 09:57:24;;;;;;;42.85;28.50;;;11.00;99.90;;;;;;4954617;28;20067;-75
2023/05/24 09:59:51;;;;;;;36.17;29.10;;;11.00;99.90;;;;;;4941259;28;20038;-75
2023/05/24 10:02:21;;;;;;;38.22;28.92;;;10.90;99.90;;;;;;4943012;28;20047;-77
2023/05/24 10:04:58;;;;;;;36.33;28.80;;;11.00;99.90;;;;;;4959690;28;20065;-75
2023/05/24 10:07:26;;;;;;;33.88;29.88;;;10.90;99.90;;;;;;4958409;28;20050;-74
2023/05/24 10:09:54;;;;;;;44.13;32.15;;;10.70;99.90;;;;;;4957280;28;20051;-73
2023/05/24 10:12:22;;;;;;;41.85;32.10;;;10.60;99.90;;;;;;4961225;28;20050;-71
2023/05/24 10:14:50;;;;;;;47.15;30.88;;;10.30;99.90;;;;;;4964157;28;20039;-73
2023/05/24 10:17:17;;;;;;;38.13;28.73;;;10.30;99.90;;;;;;4962241;28;20046;-72
2023/05/24 10:19:45;;;;;;;37.03;27.23;;;10.40;99.90;;;;;;4960880;28;20081;-70
2023/05/24 10:22:14;;;;;;;47.15;27.05;;;10.40;99.90;;;;;;4971794;28;20445;-70
2023/05/24 10:24:46;;;;;;;34.35;25.75;;;10.50;99.90;;;;;;4953529;28;20043;-72
2023/05/24 10:27:18;;;;;;;44.55;28.10;;;10.50;99.90;;;;;;4968256;28;20476;-73
2023/05/24 10:29:58;;;;;;;40.55;24.60;;;10.50;99.90;;;;;;4958391;28;20049;-69
2023/05/24 10:32:30;;;;;;;33.92;26.70;;;10.80;99.90;;;;;;4969531;28;20269;-71
2023/05/24 10:34:58;;;;;;;33.65;27.65;;;10.60;99.90;;;;;;4960503;28;20038;-72
2023/05/24 10:37:25;;;;;;;33.75;27.33;;;10.50;99.90;;;;;;4962120;28;20129;-72
2023/05/24 10:39:52;;;;;;;37.10;26.27;;;10.30;99.90;;;;;;4947766;28;20046;-70
2023/05/24 10:42:20;;;;;;;40.75;28.52;;;10.40;99.90;;;;;;4962591;28;20615;-75
2023/05/24 10:44:46;;;;;;;35.63;26.73;;;10.40;99.90;;;;;;4941286;28;20051;-74
2023/05/24 10:47:15;;;;;;;33.83;26.38;;;10.40;99.90;;;;;;4960457;28;20160;-72
2023/05/24 10:49:51;;;;;;;31.05;24.27;;;10.40;99.90;;;;;;4956706;28;20125;-72
2023/05/24 10:52:18;;;;;;;30.50;25.98;;;10.40;99.90;;;;;;4960640;28;20501;-74
2023/05/24 10:55:03;;;;;;;38.67;26.00;;;10.30;99.90;;;;;;4963169;28;20498;-71
2023/05/24 10:57:31;;;;;;;33.70;24.20;;;10.50;99.90;;;;;;4964310;28;20696;-71
2023/05/24 11:00:19;;;;;;;37.13;24.77;;;10.50;99.90;;;;;;4952548;28;20269;-72
2023/05/24 11:03:07;;;;;;;40.47;25.45;;;10.50;99.90;;;;;;4957493;28;20042;-73
2023/05/24 11:05:55;;;;;;;38.05;25.75;;;10.60;99.90;;;;;;4959881;28;20126;-72
2023/05/24 11:08:35;;;;;;;33.50;26.20;;;10.50;99.90;;;;;;4963124;28;20050;-73
2023/05/24 11:11:05;;;;;;;36.45;26.05;;;10.30;99.90;;;;;;4960645;28;20077;-69
2023/05/24 11:13:56;;;;;;;32.60;23.83;;;10.20;99.90;;;;;;4960600;28;20153;-73
2023/05/24 11:16:36;;;;;;;38.08;23.95;;;10.40;99.90;;;;;;4960096;28;20046;-73
2023/05/24 11:19:37;;;;;;;42.13;22.77;;;10.50;99.90;;;;;;4961892;28;20503;-72
2023/05/24 11:22:08;;;;;;;39.83;23.40;;;10.70;99.90;;;;;;4973495;28;20619;-72
2023/05/24 11:24:35;;;;;;;46.70;23.60;;;10.90;99.90;;;;;;4956378;28;20042;-70
2023/05/24 11:27:03;;;;;;;31.83;21.58;;;11.00;99.90;;;;;;4955977;28;20036;-70
2023/05/24 11:29:30;;;;;;;29.63;21.40;;;11.20;99.90;;;;;;4955232;28;20134;-72
2023/05/24 11:32:03;;;;;;;28.42;23.58;;;11.30;99.90;;;;;;4957173;28;20134;-72
2023/05/24 11:34:32;;;;;;;27.95;22.60;;;11.40;99.90;;;;;;4976587;28;20069;-71
2023/05/24 11:37:00;;;;;;;36.88;25.88;;;11.50;99.90;;;;;;4976567;28;20050;-74
2023/05/24 11:39:31;;;;;;;25.65;22.90;;;11.50;99.90;;;;;;4957208;28;20137;-74
2023/05/24 11:41:59;;;;;;;35.05;27.42;;;11.60;99.90;;;;;;4957124;28;20042;-73
2023/05/24 11:44:28;;;;;;;42.00;28.00;;;11.70;99.90;;;;;;4956262;28;20134;-70
2023/05/24 11:47:04;;;;;;;28.20;23.48;;;11.90;99.90;;;;;;4941920;28;20062;-73
2023/05/24 11:49:31;;;;;;;29.05;23.92;;;12.00;99.90;;;;;;4958307;28;20058;-70
2023/05/24 11:51:58;;;;;;;26.90;24.00;;;11.90;99.90;;;;;;4940503;28;20043;-69
2023/05/24 11:54:30;;;;;;;26.40;23.33;;;11.80;99.90;;;;;;4958159;28;20065;-71
2023/05/24 11:56:57;;;;;;;29.25;26.15;;;11.80;99.90;;;;;;4955395;28;20047;-72
2023/05/24 11:59:28;;;;;;;28.70;25.55;;;11.70;99.90;;;;;;4959350;28;20126;-72
2023/05/24 12:02:06;;;;;;;28.20;25.23;;;11.50;99.90;;;;;;4953011;28;20046;-71
2023/05/24 12:04:33;;;;;;;28.48;25.67;;;11.50;99.90;;;;;;4977150;28;20043;-73
2023/05/24 12:07:01;;;;;;;36.90;25.98;;;11.40;99.90;;;;;;4959714;28;20039;-72
2023/05/24 12:09:28;;;;;;;26.27;22.88;;;11.50;99.90;;;;;;4978197;28;20081;-71
2023/05/24 12:11:57;;;;;;;28.75;23.15;;;11.50;99.90;;;;;;4956879;28;20328;-73
2023/05/24 12:14:29;;;;;;;33.38;27.15;;;11.50;99.90;;;;;;4974708;28;20047;-73
2023/05/24 12:16:57;;;;;;;29.98;23.25;;;11.40;99.90;;;;;;4958559;28;20043;-70
2023/05/24 12:19:28;;;;;;;26.05;23.27;;;11.60;99.90;;;;;;4950144;28;20560;-71
2023/05/24 12:22:04;;;;;;;25.45;22.30;;;11.70;99.90;;;;;;4961083;28;20113;-71
2023/05/24 12:24:31;;;;;;;29.45;21.73;;;11.80;99.90;;;;;;4960750;28;20134;-70
2023/05/24 12:27:00;;;;;;;28.55;21.35;;;11.90;99.90;;;;;;4964370;28;20114;-74
2023/05/24 12:29:35;;;;;;;26.88;22.55;;;12.10;99.90;;;;;;4966281;28;20051;-72
2023/05/24 12:32:02;;;;;;;;;;;12.10;99.90;;;;;;4958708;28;20049;-71
2023/05/24 12:34:29;;;;;;;30.60;24.95;;;11.80;99.90;;;;;;4957130;28;19958;-73
2023/05/24 12:36:56;;;;;;;30.25;25.42;;;11.90;99.90;;;;;;4970308;28;20035;-75
2023/05/24 12:39:30;;;;;;;30.27;27.15;;;12.00;99.90;;;;;;4941085;28;20042;-74
2023/05/24 12:42:00;;;;;;;27.13;24.45;;;12.00;99.90;;;;;;4959546;28;20314;-74
2023/05/24 12:44:30;;;;;;;28.73;26.13;;;12.10;99.90;;;;;;4972225;28;20045;-72